sensor_id;sensor_type;location;lat;lon;timestamp;pressure;altitude;pressure_sealevel;temperature;humidity
20228;BME280;12195;55.790;37.572;2022-08-19T00:02:26;100339.86;;;23.18;47.15
20228;BME280;12195;55.790;37.572;2022-08-19T00:04:58;100351.18;;;23.12;47.35
20228;BME280;12195;55.790;37.572;2022-08-19T00:07:31;100345.57;;;23.05;47.77
20228;BME280;12195;55.790;37.572;2022-08-19T00:10:05;100348.14;;;22.97;47.96
20228;BME280;12195;55.790;37.572;2022-08-19T00:12:38;100341.52;;;22.92;48.18
20228;BME280;12195;55.790;37.572;2022-08-19T00:15:15;100348.30;;;22.86;48.38
20228;BME280;12195;55.790;37.572;2022-08-19T00:17:48;100351.72;;;22.79;48.51
20228;BME280;12195;55.790;37.572;2022-08-19T00:20:21;100351.60;;;22.71;48.78
20228;BME280;12195;55.790;37.572;2022-08-19T00:22:53;100354.84;;;22.65;48.86
20228;BME280;12195;55.790;37.572;2022-08-19T00:25:26;100350.77;;;22.61;48.98
20228;BME280;12195;55.790;37.572;2022-08-19T00:27:59;100348.67;;;22.55;49.11
20228;BME280;12195;55.790;37.572;2022-08-19T00:30:32;100356.16;;;22.51;49.19
20228;BME280;12195;55.790;37.572;2022-08-19T00:33:04;100350.64;;;22.43;49.44
20228;BME280;12195;55.790;37.572;2022-08-19T00:35:36;100359.95;;;22.39;49.49
20228;BME280;12195;55.790;37.572;2022-08-19T00:38:09;100354.15;;;22.34;49.62
20228;BME280;12195;55.790;37.572;2022-08-19T00:40:43;100354.59;;;22.30;49.67
20228;BME280;12195;55.790;37.572;2022-08-19T00:43:19;100365.02;;;22.23;49.79
20228;BME280;12195;55.790;37.572;2022-08-19T00:45:52;100358.54;;;22.16;49.96
20228;BME280;12195;55.790;37.572;2022-08-19T00:48:24;100373.31;;;22.11;50.04
20228;BME280;12195;55.790;37.572;2022-08-19T00:50:56;100369.67;;;22.02;50.14
20228;BME280;12195;55.790;37.572;2022-08-19T00:53:30;100362.19;;;21.96;50.26
20228;BME280;12195;55.790;37.572;2022-08-19T00:56:05;100374.15;;;21.92;50.33
20228;BME280;12195;55.790;37.572;2022-08-19T00:58:37;100372.73;;;21.88;50.28
20228;BME280;12195;55.790;37.572;2022-08-19T01:01:10;100372.18;;;21.85;50.23
20228;BME280;12195;55.790;37.572;2022-08-19T01:03:42;100373.30;;;21.82;50.37
20228;BME280;12195;55.790;37.572;2022-08-19T01:06:17;100372.02;;;21.77;50.23
20228;BME280;12195;55.790;37.572;2022-08-19T01:08:50;100381.30;;;21.73;50.18
20228;BME280;12195;55.790;37.572;2022-08-19T01:11:22;100378.86;;;21.70;50.35
20228;BME280;12195;55.790;37.572;2022-08-19T01:13:55;100383.78;;;21.65;50.54
20228;BME280;12195;55.790;37.572;2022-08-19T01:16:28;100394.75;;;21.62;50.66
20228;BME280;12195;55.790;37.572;2022-08-19T01:19:02;100400.36;;;21.59;50.61
20228;BME280;12195;55.790;37.572;2022-08-19T01:21:49;100400.36;;;21.59;50.44
20228;BME280;12195;55.790;37.572;2022-08-19T01:24:13;100400.66;;;21.56;50.35
20228;BME280;12195;55.790;37.572;2022-08-19T01:26:47;100401.77;;;21.53;50.47
20228;BME280;12195;55.790;37.572;2022-08-19T01:29:20;100389.80;;;21.48;50.63
20228;BME280;12195;55.790;37.572;2022-08-19T01:31:54;100396.39;;;21.44;50.54
20228;BME280;12195;55.790;37.572;2022-08-19T01:34:26;100398.62;;;21.39;50.46
20228;BME280;12195;55.790;37.572;2022-08-19T01:36:58;100397.20;;;21.35;50.70
20228;BME280;12195;55.790;37.572;2022-08-19T01:39:31;100403.08;;;21.29;50.72
20228;BME280;12195;55.790;37.572;2022-08-19T01:42:03;100398.98;;;21.25;50.66
20228;BME280;12195;55.790;37.572;2022-08-19T01:44:38;100400.35;;;21.19;50.84
20228;BME280;12195;55.790;37.572;2022-08-19T01:47:10;100398.36;;;21.12;50.98
20228;BME280;12195;55.790;37.572;2022-08-19T01:49:42;100406.30;;;21.23;49.62
20228;BME280;12195;55.790;37.572;2022-08-19T01:52:15;100395.51;;;21.04;51.20
20228;BME280;12195;55.790;37.572;2022-08-19T01:54:47;100398.56;;;20.99;51.17
20228;BME280;12195;55.790;37.572;2022-08-19T01:57:19;100397.99;;;20.96;51.18
20228;BME280;12195;55.790;37.572;2022-08-19T01:59:51;100389.28;;;20.94;51.35
20228;BME280;12195;55.790;37.572;2022-08-19T02:02:23;100393.98;;;20.90;51.37
20228;BME280;12195;55.790;37.572;2022-08-19T02:04:56;100388.08;;;20.87;51.34
20228;BME280;12195;55.790;37.572;2022-08-19T02:07:30;100389.77;;;20.88;51.35
20228;BME280;12195;55.790;37.572;2022-08-19T02:10:05;100389.89;;;20.86;51.27
20228;BME280;12195;55.790;37.572;2022-08-19T02:12:39;100385.41;;;20.87;51.24
20228;BME280;12195;55.790;37.572;2022-08-19T02:15:12;100381.75;;;20.88;51.25
20228;BME280;12195;55.790;37.572;2022-08-19T02:17:45;100390.40;;;20.91;51.06
20228;BME280;12195;55.790;37.572;2022-08-19T02:20:17;100388.17;;;20.96;50.92
20228;BME280;12195;55.790;37.572;2022-08-19T02:22:49;100371.86;;;20.99;50.82
20228;BME280;12195;55.790;37.572;2022-08-19T02:25:21;100382.28;;;21.02;50.76
20228;BME280;12195;55.790;37.572;2022-08-19T02:27:54;100395.12;;;21.08;50.75
20228;BME280;12195;55.790;37.572;2022-08-19T02:30:27;100411.72;;;21.12;50.71
20228;BME280;12195;55.790;37.572;2022-08-19T02:32:59;100413.41;;;21.13;51.34
20228;BME280;12195;55.790;37.572;2022-08-19T02:35:31;100416.93;;;21.13;51.60
20228;BME280;12195;55.790;37.572;2022-08-19T02:38:03;100423.26;;;21.12;51.41
20228;BME280;12195;55.790;37.572;2022-08-19T02:41:03;100415.38;;;21.11;51.39
20228;BME280;12195;55.790;37.572;2022-08-19T02:43:31;100419.86;;;21.10;51.46
20228;BME280;12195;55.790;37.572;2022-08-19T02:46:17;100423.52;;;21.09;51.65
20228;BME280;12195;55.790;37.572;2022-08-19T02:48:56;100417.31;;;21.09;51.50
20228;BME280;12195;55.790;37.572;2022-08-19T02:51:32;100421.70;;;21.10;51.53
20228;BME280;12195;55.790;37.572;2022-08-19T02:54:06;100423.26;;;21.12;51.53
20228;BME280;12195;55.790;37.572;2022-08-19T02:56:41;100412.16;;;21.17;51.22
20228;BME280;12195;55.790;37.572;2022-08-19T02:59:14;100422.59;;;21.20;51.25
20228;BME280;12195;55.790;37.572;2022-08-19T03:01:46;100430.47;;;21.21;51.00
20228;BME280;12195;55.790;37.572;2022-08-19T03:04:18;100424.87;;;21.24;51.06
20228;BME280;12195;55.790;37.572;2022-08-19T03:06:51;100438.06;;;21.26;50.85
20228;BME280;12195;55.790;37.572;2022-08-19T03:09:24;100426.13;;;21.30;50.87
20228;BME280;12195;55.790;37.572;2022-08-19T03:11:56;100421.52;;;21.32;50.89
20228;BME280;12195;55.790;37.572;2022-08-19T03:14:31;100422.08;;;21.35;50.75
20228;BME280;12195;55.790;37.572;2022-08-19T03:17:04;100418.30;;;21.38;50.65
20228;BME280;12195;55.790;37.572;2022-08-19T03:19:36;100429.71;;;21.40;50.65
20228;BME280;12195;55.790;37.572;2022-08-19T03:22:09;100438.16;;;21.45;50.56
20228;BME280;12195;55.790;37.572;2022-08-19T03:24:41;100430.02;;;21.46;50.44
20228;BME280;12195;55.790;37.572;2022-08-19T03:27:14;100436.22;;;21.47;50.38
20228;BME280;12195;55.790;37.572;2022-08-19T03:29:48;100433.25;;;21.50;50.37
20228;BME280;12195;55.790;37.572;2022-08-19T03:32:21;100429.63;;;21.51;50.71
20228;BME280;12195;55.790;37.572;2022-08-19T03:34:55;100432.30;;;21.51;51.18
20228;BME280;12195;55.790;37.572;2022-08-19T03:37:27;100427.64;;;21.53;50.65
20228;BME280;12195;55.790;37.572;2022-08-19T03:39:59;100437.34;;;21.54;50.63
20228;BME280;12195;55.790;37.572;2022-08-19T03:42:33;100432.59;;;21.57;50.58
20228;BME280;12195;55.790;37.572;2022-08-19T03:45:07;100427.69;;;21.62;50.64
20228;BME280;12195;55.790;37.572;2022-08-19T03:47:41;100431.78;;;21.66;50.24
20228;BME280;12195;55.790;37.572;2022-08-19T03:50:14;100435.77;;;21.72;50.07
20228;BME280;12195;55.790;37.572;2022-08-19T03:52:50;100439.44;;;21.80;49.93
20228;BME280;12195;55.790;37.572;2022-08-19T03:55:23;100436.36;;;21.85;49.84
20228;BME280;12195;55.790;37.572;2022-08-19T03:57:56;100429.50;;;21.92;49.57
20228;BME280;12195;55.790;37.572;2022-08-19T04:00:29;100437.81;;;21.98;49.42
20228;BME280;12195;55.790;37.572;2022-08-19T04:03:01;100435.30;;;22.06;49.14
20228;BME280;12195;55.790;37.572;2022-08-19T04:05:34;100431.05;;;22.13;48.92
20228;BME280;12195;55.790;37.572;2022-08-19T04:08:06;100423.48;;;22.18;48.88
20228;BME280;12195;55.790;37.572;2022-08-19T04:10:39;100430.80;;;22.26;48.66
20228;BME280;12195;55.790;37.572;2022-08-19T04:13:13;100427.68;;;22.30;48.43
20228;BME280;12195;55.790;37.572;2022-08-19T04:15:46;100427.41;;;22.33;48.33
20228;BME280;12195;55.790;37.572;2022-08-19T04:18:18;100430.67;;;22.37;48.34
20228;BME280;12195;55.790;37.572;2022-08-19T04:20:50;100433.45;;;22.45;48.08
20228;BME280;12195;55.790;37.572;2022-08-19T04:23:23;100431.27;;;22.50;48.06
20228;BME280;12195;55.790;37.572;2022-08-19T04:25:55;100431.95;;;22.61;47.92
20228;BME280;12195;55.790;37.572;2022-08-19T04:28:28;100429.95;;;22.73;47.47
20228;BME280;12195;55.790;37.572;2022-08-19T04:31:01;100432.34;;;22.85;47.28
20228;BME280;12195;55.790;37.572;2022-08-19T04:33:33;100443.73;;;22.97;47.08
20228;BME280;12195;55.790;37.572;2022-08-19T04:36:06;100446.80;;;23.11;46.79
20228;BME280;12195;55.790;37.572;2022-08-19T04:38:38;100450.75;;;23.26;46.57
20228;BME280;12195;55.790;37.572;2022-08-19T04:41:10;100446.77;;;23.40;46.08
20228;BME280;12195;55.790;37.572;2022-08-19T04:44:01;100446.27;;;23.54;45.70
20228;BME280;12195;55.790;37.572;2022-08-19T04:46:34;100448.16;;;23.71;45.46
20228;BME280;12195;55.790;37.572;2022-08-19T04:49:08;100447.82;;;23.83;45.00
20228;BME280;12195;55.790;37.572;2022-08-19T04:51:44;100458.07;;;23.97;44.63
20228;BME280;12195;55.790;37.572;2022-08-19T04:54:18;100449.11;;;24.06;44.25
20228;BME280;12195;55.790;37.572;2022-08-19T04:56:54;100453.41;;;24.17;44.07
20228;BME280;12195;55.790;37.572;2022-08-19T04:59:26;100444.85;;;24.31;43.99
20228;BME280;12195;55.790;37.572;2022-08-19T05:01:59;100447.31;;;24.42;43.66
20228;BME280;12195;55.790;37.572;2022-08-19T05:04:31;100446.39;;;24.51;43.56
20228;BME280;12195;55.790;37.572;2022-08-19T05:07:04;100448.14;;;24.60;43.32
20228;BME280;12195;55.790;37.572;2022-08-19T05:09:37;100456.98;;;24.70;43.14
20228;BME280;12195;55.790;37.572;2022-08-19T05:12:10;100451.67;;;24.78;42.87
20228;BME280;12195;55.790;37.572;2022-08-19T05:14:42;100454.45;;;25.12;42.28
20228;BME280;12195;55.790;37.572;2022-08-19T05:17:17;100441.81;;;25.04;42.18
20228;BME280;12195;55.790;37.572;2022-08-19T05:19:51;100451.77;;;25.12;42.09
20228;BME280;12195;55.790;37.572;2022-08-19T05:22:42;100450.66;;;25.22;41.76
20228;BME280;12195;55.790;37.572;2022-08-19T05:25:17;100442.52;;;25.32;41.73
20228;BME280;12195;55.790;37.572;2022-08-19T05:27:52;100443.23;;;25.42;41.41
20228;BME280;12195;55.790;37.572;2022-08-19T05:30:25;100440.23;;;25.45;41.22
20228;BME280;12195;55.790;37.572;2022-08-19T05:32:58;100445.97;;;25.50;41.18
20228;BME280;12195;55.790;37.572;2022-08-19T05:35:31;100444.80;;;25.52;41.21
20228;BME280;12195;55.790;37.572;2022-08-19T05:38:05;100453.09;;;25.59;41.13
20228;BME280;12195;55.790;37.572;2022-08-19T05:40:42;100445.38;;;25.64;40.94
20228;BME280;12195;55.790;37.572;2022-08-19T05:43:17;100442.73;;;25.72;41.07
20228;BME280;12195;55.790;37.572;2022-08-19T05:45:49;100438.86;;;25.74;40.93
20228;BME280;12195;55.790;37.572;2022-08-19T05:48:21;100450.48;;;25.83;40.95
20228;BME280;12195;55.790;37.572;2022-08-19T05:50:55;100442.95;;;25.86;41.00
20228;BME280;12195;55.790;37.572;2022-08-19T05:53:28;100445.12;;;25.91;40.69
20228;BME280;12195;55.790;37.572;2022-08-19T05:56:08;100445.29;;;25.89;40.65
20228;BME280;12195;55.790;37.572;2022-08-19T05:58:41;100444.69;;;25.95;40.66
20228;BME280;12195;55.790;37.572;2022-08-19T06:01:15;100448.58;;;26.01;40.59
20228;BME280;12195;55.790;37.572;2022-08-19T06:03:48;100459.77;;;26.38;39.97
20228;BME280;12195;55.790;37.572;2022-08-19T06:06:20;100456.03;;;26.23;40.32
20228;BME280;12195;55.790;37.572;2022-08-19T06:08:52;100449.14;;;26.28;40.41
20228;BME280;12195;55.790;37.572;2022-08-19T06:11:39;100451.17;;;26.26;40.37
20228;BME280;12195;55.790;37.572;2022-08-19T06:14:14;100442.73;;;26.29;40.47
20228;BME280;12195;55.790;37.572;2022-08-19T06:16:47;100437.03;;;26.32;40.40
20228;BME280;12195;55.790;37.572;2022-08-19T06:19:23;100444.44;;;26.38;40.47
20228;BME280;12195;55.790;37.572;2022-08-19T06:22:00;100456.73;;;26.49;40.25
20228;BME280;12195;55.790;37.572;2022-08-19T06:24:33;100457.31;;;26.68;40.09
20228;BME280;12195;55.790;37.572;2022-08-19T06:27:06;100456.13;;;26.87;39.44
20228;BME280;12195;55.790;37.572;2022-08-19T06:29:39;100465.02;;;27.11;39.17
20228;BME280;12195;55.790;37.572;2022-08-19T06:32:15;100462.67;;;27.24;38.84
20228;BME280;12195;55.790;37.572;2022-08-19T06:34:49;100460.11;;;27.39;38.52
20228;BME280;12195;55.790;37.572;2022-08-19T06:37:22;100460.89;;;27.63;38.11
20228;BME280;12195;55.790;37.572;2022-08-19T06:39:56;100457.28;;;27.87;37.48
20228;BME280;12195;55.790;37.572;2022-08-19T06:42:30;100462.56;;;28.11;37.18
20228;BME280;12195;55.790;37.572;2022-08-19T06:45:06;100457.97;;;28.50;36.39
20228;BME280;12195;55.790;37.572;2022-08-19T06:47:39;100457.80;;;28.88;35.87
20228;BME280;12195;55.790;37.572;2022-08-19T06:50:13;100448.51;;;29.28;35.06
20228;BME280;12195;55.790;37.572;2022-08-19T06:52:46;100452.31;;;29.33;34.84
20228;BME280;12195;55.790;37.572;2022-08-19T06:55:20;100450.81;;;29.31;34.99
20228;BME280;12195;55.790;37.572;2022-08-19T06:57:54;100457.25;;;29.15;35.05
20228;BME280;12195;55.790;37.572;2022-08-19T07:00:26;100455.55;;;29.00;35.34
20228;BME280;12195;55.790;37.572;2022-08-19T07:02:59;100450.78;;;28.79;35.61
20228;BME280;12195;55.790;37.572;2022-08-19T07:05:39;100453.09;;;28.68;36.15
20228;BME280;12195;55.790;37.572;2022-08-19T07:08:14;100448.59;;;28.60;36.36
20228;BME280;12195;55.790;37.572;2022-08-19T07:10:47;100450.16;;;28.55;36.52
20228;BME280;12195;55.790;37.572;2022-08-19T07:13:19;100457.80;;;28.88;36.12
20228;BME280;12195;55.790;37.572;2022-08-19T07:15:52;100457.34;;;28.62;36.52
20228;BME280;12195;55.790;37.572;2022-08-19T07:18:25;100450.44;;;28.60;36.59
20228;BME280;12195;55.790;37.572;2022-08-19T07:21:29;100456.64;;;28.68;36.49
20228;BME280;12195;55.790;37.572;2022-08-19T07:23:39;100455.19;;;28.80;36.32
20228;BME280;12195;55.790;37.572;2022-08-19T07:26:17;100455.95;;;28.89;34.71
20228;BME280;12195;55.790;37.572;2022-08-19T07:28:52;100454.73;;;28.91;34.23
20228;BME280;12195;55.790;37.572;2022-08-19T07:31:26;100448.12;;;28.94;34.06
20228;BME280;12195;55.790;37.572;2022-08-19T07:34:01;100459.44;;;28.97;33.86
20228;BME280;12195;55.790;37.572;2022-08-19T07:36:35;100469.22;;;28.98;33.77
20228;BME280;12195;55.790;37.572;2022-08-19T07:39:14;100467.37;;;28.99;33.69
20228;BME280;12195;55.790;37.572;2022-08-19T07:41:47;100461.34;;;29.11;33.79
20228;BME280;12195;55.790;37.572;2022-08-19T07:44:21;100458.94;;;29.31;33.82
20228;BME280;12195;55.790;37.572;2022-08-19T07:46:56;100459.89;;;29.53;33.74
20228;BME280;12195;55.790;37.572;2022-08-19T07:49:30;100455.99;;;29.70;32.47
20228;BME280;12195;55.790;37.572;2022-08-19T07:52:06;100464.39;;;29.75;31.59
20228;BME280;12195;55.790;37.572;2022-08-19T07:54:40;100465.14;;;29.83;31.76
20228;BME280;12195;55.790;37.572;2022-08-19T07:57:13;100463.37;;;29.90;31.37
20228;BME280;12195;55.790;37.572;2022-08-19T07:59:45;100471.66;;;30.03;31.26
20228;BME280;12195;55.790;37.572;2022-08-19T08:02:17;100464.05;;;30.13;30.75
20228;BME280;12195;55.790;37.572;2022-08-19T08:04:50;100470.99;;;30.16;30.70
20228;BME280;12195;55.790;37.572;2022-08-19T08:07:40;100483.61;;;30.23;30.35
20228;BME280;12195;55.790;37.572;2022-08-19T08:10:30;100483.50;;;30.31;30.21
20228;BME280;12195;55.790;37.572;2022-08-19T08:13:03;100478.27;;;30.30;30.33
20228;BME280;12195;55.790;37.572;2022-08-19T08:15:38;100479.68;;;30.26;30.56
20228;BME280;12195;55.790;37.572;2022-08-19T08:18:12;100485.66;;;30.21;30.65
20228;BME280;12195;55.790;37.572;2022-08-19T08:20:45;100483.61;;;30.09;30.86
20228;BME280;12195;55.790;37.572;2022-08-19T08:23:17;100483.12;;;30.05;31.28
20228;BME280;12195;55.790;37.572;2022-08-19T08:26:00;100487.47;;;30.00;31.49
20228;BME280;12195;55.790;37.572;2022-08-19T08:28:33;100484.09;;;29.98;31.78
20228;BME280;12195;55.790;37.572;2022-08-19T08:31:06;100479.89;;;29.95;31.54
20228;BME280;12195;55.790;37.572;2022-08-19T08:33:39;100492.67;;;30.01;31.94
20228;BME280;12195;55.790;37.572;2022-08-19T08:36:13;100483.80;;;30.07;31.85
20228;BME280;12195;55.790;37.572;2022-08-19T08:38:46;100489.59;;;30.19;31.71
20228;BME280;12195;55.790;37.572;2022-08-19T08:42:00;100496.66;;;30.34;31.56
20228;BME280;12195;55.790;37.572;2022-08-19T08:47:14;100485.98;;;30.68;31.33
20228;BME280;12195;55.790;37.572;2022-08-19T08:50:01;100481.70;;;30.74;31.16
20228;BME280;12195;55.790;37.572;2022-08-19T08:52:33;100481.75;;;30.80;31.05
20228;BME280;12195;55.790;37.572;2022-08-19T08:55:12;100479.09;;;30.87;29.95
20228;BME280;12195;55.790;37.572;2022-08-19T09:00:27;100477.13;;;31.02;29.67
20228;BME280;12195;55.790;37.572;2022-08-19T09:03:01;100476.16;;;31.09;29.82
20228;BME280;12195;55.790;37.572;2022-08-19T09:08:25;100472.62;;;31.36;29.51
20228;BME280;12195;55.790;37.572;2022-08-19T09:10:54;100474.02;;;31.53;29.31
20228;BME280;12195;55.790;37.572;2022-08-19T09:13:45;100475.48;;;31.56;28.98
20228;BME280;12195;55.790;37.572;2022-08-19T09:16:21;100472.34;;;31.59;29.19
20228;BME280;12195;55.790;37.572;2022-08-19T09:19:01;100467.73;;;31.53;29.06
20228;BME280;12195;55.790;37.572;2022-08-19T09:21:32;100467.15;;;31.30;29.42
20228;BME280;12195;55.790;37.572;2022-08-19T09:24:06;100461.59;;;31.17;29.76
20228;BME280;12195;55.790;37.572;2022-08-19T09:26:38;100476.16;;;31.09;29.92
20228;BME280;12195;55.790;37.572;2022-08-19T09:29:13;100479.70;;;31.10;30.29
20228;BME280;12195;55.790;37.572;2022-08-19T09:31:46;100483.27;;;31.10;29.98
20228;BME280;12195;55.790;37.572;2022-08-19T09:34:18;100485.23;;;31.44;29.77
20228;BME280;12195;55.790;37.572;2022-08-19T09:36:52;100488.26;;;31.07;29.60
20228;BME280;12195;55.790;37.572;2022-08-19T09:39:25;100484.34;;;30.88;29.98
20228;BME280;12195;55.790;37.572;2022-08-19T09:41:59;100491.31;;;30.76;30.24
20228;BME280;12195;55.790;37.572;2022-08-19T09:44:31;100504.73;;;31.05;30.03
20228;BME280;12195;55.790;37.572;2022-08-19T09:47:05;100493.88;;;30.63;28.93
20228;BME280;12195;55.790;37.572;2022-08-19T09:49:38;100497.71;;;30.54;28.49
20228;BME280;12195;55.790;37.572;2022-08-19T09:52:11;100504.11;;;30.47;28.60
20228;BME280;12195;55.790;37.572;2022-08-19T09:54:43;100510.70;;;30.59;28.55
20228;BME280;12195;55.790;37.572;2022-08-19T09:57:18;100504.43;;;30.58;27.13
20228;BME280;12195;55.790;37.572;2022-08-19T09:59:50;100497.69;;;30.69;26.90
20228;BME280;12195;55.790;37.572;2022-08-19T10:02:24;100500.75;;;30.80;26.40
20228;BME280;12195;55.790;37.572;2022-08-19T10:04:58;100505.77;;;30.83;26.99
20228;BME280;12195;55.790;37.572;2022-08-19T10:07:49;100503.14;;;30.90;27.04
20228;BME280;12195;55.790;37.572;2022-08-19T10:10:22;100506.30;;;30.93;26.56
20228;BME280;12195;55.790;37.572;2022-08-19T10:12:55;100493.58;;;30.94;26.38
20228;BME280;12195;55.790;37.572;2022-08-19T10:15:27;100498.84;;;31.02;26.77
20228;BME280;12195;55.790;37.572;2022-08-19T10:18:01;100493.93;;;31.12;26.94
20228;BME280;12195;55.790;37.572;2022-08-19T10:20:35;100483.20;;;31.25;26.88
20228;BME280;12195;55.790;37.572;2022-08-19T10:23:07;100487.44;;;31.34;27.31
20228;BME280;12195;55.790;37.572;2022-08-19T10:25:40;100503.69;;;31.27;27.42
20228;BME280;12195;55.790;37.572;2022-08-19T10:28:13;100493.93;;;31.12;27.28
20228;BME280;12195;55.790;37.572;2022-08-19T10:30:47;100493.93;;;31.12;27.28
20228;BME280;12195;55.790;37.572;2022-08-19T10:33:20;100507.64;;;31.04;27.80
20228;BME280;12195;55.790;37.572;2022-08-19T10:36:06;100518.44;;;30.97;26.89
20228;BME280;12195;55.790;37.572;2022-08-19T10:38:38;100506.59;;;31.05;26.55
20228;BME280;12195;55.790;37.572;2022-08-19T10:41:15;100499.98;;;31.14;26.46
20228;BME280;12195;55.790;37.572;2022-08-19T10:43:49;100498.97;;;31.15;25.94
20228;BME280;12195;55.790;37.572;2022-08-19T10:46:23;100506.59;;;31.26;24.83
20228;BME280;12195;55.790;37.572;2022-08-19T10:48:55;100487.01;;;31.30;24.76
20228;BME280;12195;55.790;37.572;2022-08-19T10:51:28;100495.78;;;31.32;23.41
20228;BME280;12195;55.790;37.572;2022-08-19T10:54:19;100509.36;;;31.32;21.59
20228;BME280;12195;55.790;37.572;2022-08-19T10:56:53;100517.58;;;31.39;19.76
20228;BME280;12195;55.790;37.572;2022-08-19T10:59:29;100515.49;;;31.41;18.25
20228;BME280;12195;55.790;37.572;2022-08-19T11:02:05;100521.64;;;31.28;18.52
20228;BME280;12195;55.790;37.572;2022-08-19T11:04:39;100523.08;;;31.24;18.85
20228;BME280;12195;55.790;37.572;2022-08-19T11:07:12;100520.74;;;31.21;18.83
20228;BME280;12195;55.790;37.572;2022-08-19T11:09:44;100529.08;;;31.20;19.55
20228;BME280;12195;55.790;37.572;2022-08-19T11:12:17;100513.97;;;31.11;18.88
20228;BME280;12195;55.790;37.572;2022-08-19T11:14:50;100521.45;;;31.09;19.45
20228;BME280;12195;55.790;37.572;2022-08-19T11:17:23;100517.45;;;31.05;19.82
20228;BME280;12195;55.790;37.572;2022-08-19T11:19:55;100521.02;;;31.05;20.00
20228;BME280;12195;55.790;37.572;2022-08-19T11:22:27;100517.70;;;31.10;20.10
20228;BME280;12195;55.790;37.572;2022-08-19T11:25:02;100507.26;;;31.07;19.04
20228;BME280;12195;55.790;37.572;2022-08-19T11:27:39;100505.97;;;31.03;19.37
20228;BME280;12195;55.790;37.572;2022-08-19T11:30:14;100497.16;;;31.01;19.36
20228;BME280;12195;55.790;37.572;2022-08-19T11:32:46;100493.35;;;30.95;19.68
20228;BME280;12195;55.790;37.572;2022-08-19T11:35:19;100495.44;;;30.93;19.76
20228;BME280;12195;55.790;37.572;2022-08-19T11:37:53;100497.22;;;31.07;19.36
20228;BME280;12195;55.790;37.572;2022-08-19T11:40:27;100498.17;;;31.21;19.34
20228;BME280;12195;55.790;37.572;2022-08-19T11:42:59;100500.77;;;31.29;19.42
20228;BME280;12195;55.790;37.572;2022-08-19T11:45:32;100496.24;;;31.36;19.62
20228;BME280;12195;55.790;37.572;2022-08-19T11:48:04;100496.33;;;31.49;19.80
20228;BME280;12195;55.790;37.572;2022-08-19T11:50:37;100503.62;;;31.76;19.91
20228;BME280;12195;55.790;37.572;2022-08-19T11:53:11;100497.23;;;31.90;20.08
20228;BME280;12195;55.790;37.572;2022-08-19T11:55:43;100507.55;;;32.01;20.14
20228;BME280;12195;55.790;37.572;2022-08-19T11:58:17;100507.59;;;32.14;20.29
20228;BME280;12195;55.790;37.572;2022-08-19T12:00:49;100510.52;;;32.12;20.59
20228;BME280;12195;55.790;37.572;2022-08-19T12:03:22;100507.84;;;32.25;20.78
20228;BME280;12195;55.790;37.572;2022-08-19T12:05:55;100514.63;;;32.42;20.84
20228;BME280;12195;55.790;37.572;2022-08-19T12:08:27;100504.42;;;32.57;21.06
20228;BME280;12195;55.790;37.572;2022-08-19T12:11:00;100489.62;;;32.92;20.51
20228;BME280;12195;55.790;37.572;2022-08-19T12:13:32;100506.43;;;33.48;19.88
20228;BME280;12195;55.790;37.572;2022-08-19T12:16:17;100495.31;;;34.33;19.21
20228;BME280;12195;55.790;37.572;2022-08-19T12:18:44;100486.70;;;35.47;18.44
20228;BME280;12195;55.790;37.572;2022-08-19T12:21:25;100501.27;;;36.67;17.79
20228;BME280;12195;55.790;37.572;2022-08-19T12:24:00;100484.89;;;37.66;17.01
20228;BME280;12195;55.790;37.572;2022-08-19T12:26:34;100501.17;;;38.46;16.50
20228;BME280;12195;55.790;37.572;2022-08-19T12:29:08;100495.92;;;39.01;16.24
20228;BME280;12195;55.790;37.572;2022-08-19T12:31:41;100488.77;;;39.49;15.94
20228;BME280;12195;55.790;37.572;2022-08-19T12:34:15;100466.58;;;39.94;15.52
20228;BME280;12195;55.790;37.572;2022-08-19T12:36:47;100465.14;;;40.34;15.15
20228;BME280;12195;55.790;37.572;2022-08-19T12:39:20;100462.05;;;40.52;15.06
20228;BME280;12195;55.790;37.572;2022-08-19T12:41:53;100478.14;;;40.60;15.02
20228;BME280;12195;55.790;37.572;2022-08-19T12:44:26;100468.66;;;40.51;15.18
20228;BME280;12195;55.790;37.572;2022-08-19T12:47:00;100472.38;;;40.62;15.20
20228;BME280;12195;55.790;37.572;2022-08-19T12:49:35;100479.03;;;40.66;15.29
20228;BME280;12195;55.790;37.572;2022-08-19T12:52:10;100473.79;;;40.43;15.47
20228;BME280;12195;55.790;37.572;2022-08-19T12:54:46;100470.08;;;40.11;15.77
20228;BME280;12195;55.790;37.572;2022-08-19T12:57:28;100472.88;;;39.73;16.21
20228;BME280;12195;55.790;37.572;2022-08-19T12:59:55;100477.29;;;39.36;16.57
20228;BME280;12195;55.790;37.572;2022-08-19T13:02:27;100472.59;;;39.03;16.83
20228;BME280;12195;55.790;37.572;2022-08-19T13:05:00;100475.27;;;38.98;16.91
20228;BME280;12195;55.790;37.572;2022-08-19T13:07:33;100472.19;;;38.95;16.88
20228;BME280;12195;55.790;37.572;2022-08-19T13:10:08;100481.38;;;38.89;16.88
20228;BME280;12195;55.790;37.572;2022-08-19T13:12:44;100478.88;;;38.71;17.06
20228;BME280;12195;55.790;37.572;2022-08-19T13:15:18;100486.74;;;38.51;17.26
20228;BME280;12195;55.790;37.572;2022-08-19T13:17:54;100477.89;;;38.21;17.56
20228;BME280;12195;55.790;37.572;2022-08-19T13:20:27;100477.19;;;38.14;17.53
20228;BME280;12195;55.790;37.572;2022-08-19T13:23:00;100471.95;;;38.40;17.50
20228;BME280;12195;55.790;37.572;2022-08-19T13:25:32;100474.39;;;38.81;17.78